Forside
METAR-TAF:

METAR-TAF

Lufthavne :

Angola, Indiana, USA

Breddekreds: 41-38-23N, længdekreds: 085-05-01W, højde: 303 m

Aktuelle vejr

Denne rapport blev lavet for 10 minutter siden, kl. 21:15 UTC
Vind 9 kt fra vest
Temperatur 0°C
Fugtighed 93%
Tryk 1011 hPa
Sigt: 9.7 km
Overskyet i en højde af 600 ft
dis

METAR: KANQ 262115Z AUTO 28009KT 6SM BR OVC006 M00/M01 A2984 RMK AO2

Tid: 16:25 (21:25 UTC)


TAF: fraværende

Vejrobservationer og prognoser fra mere end 4000 lufthavne (METAR og TAF).

De gule og røde prikker repræsenterer de meteorologiske stationer.

Flyt musen over at se navnet på stationen.

Så klik over at se vejr observationer og prognoser.

At skifte det kort: Klik på de grønne knapper med et sort kors for at zoome ind; på den grønne knap med en bindestreg for at zoome ud; eller på de grønne pile for tilstødende kort.


METAR-TAF: